Time,TemperatureF,DewpointF,PressureIn,WindDirection,WindDirectionDegrees,WindSpeedMPH,WindSpeedGustMPH,Humidity,HourlyPrecipIn,Conditions,Clouds,dailyrainin,SolarRadiationWatts/m^2,SoftwareType,DateUTC
2013-08-27 00:01:00,72.0,68.0,-100.00,NNE,12,3.0,5.0,87,0.00,,,0.42,1.000000,,2013-08-27 07:01:00,
2013-08-27 00:42:00,71.0,68.0,-100.00,WNW,289,2.0,4.0,90,0.00,,,0.42,1.000000,,2013-08-27 07:42:00,
2013-08-27 00:52:00,71.0,68.0,-100.00,WNW,289,2.0,4.0,90,0.00,,,0.42,1.000000,,2013-08-27 07:52:00,
2013-08-27 01:01:00,71.0,68.0,-100.00,WNW,289,2.0,4.0,90,0.00,,,0.42,1.000000,,2013-08-27 08:01:00,
2013-08-27 01:42:00,71.0,69.0,-100.00,North,9,3.0,4.0,92,0.00,,,0.42,1.000000,,2013-08-27 08:42:00,
2013-08-27 01:52:00,71.0,69.0,-100.00,North,9,3.0,4.0,92,0.00,,,0.42,1.000000,,2013-08-27 08:52:00,
2013-08-27 02:01:00,71.0,69.0,-100.00,North,9,3.0,4.0,92,0.00,,,0.42,1.000000,,2013-08-27 09:01:00,
2013-08-27 02:43:00,70.0,68.0,-100.00,NNE,31,1.0,4.0,94,0.00,,,0.42,1.000000,,2013-08-27 09:43:00,
2013-08-27 02:54:00,70.0,68.0,-100.00,NNE,31,1.0,4.0,94,0.00,,,0.42,1.000000,,2013-08-27 09:54:00,
2013-08-27 03:05:00,70.0,68.0,-100.00,NNE,31,1.0,4.0,94,0.00,,,0.42,1.000000,,2013-08-27 10:05:00,
2013-08-27 03:43:00,69.0,68.0,-100.00,North,4,2.0,3.0,96,0.00,,,0.42,1.000000,,2013-08-27 10:43:00,
2013-08-27 03:53:00,69.0,68.0,-100.00,North,4,2.0,3.0,96,0.00,,,0.42,1.000000,,2013-08-27 10:53:00,
2013-08-27 04:03:00,69.0,68.0,-100.00,North,4,2.0,3.0,96,0.00,,,0.42,1.000000,,2013-08-27 11:03:00,
2013-08-27 04:42:00,69.0,67.0,-100.00,North,354,3.0,5.0,92,0.00,,,0.42,1.000000,,2013-08-27 11:42:00,
2013-08-27 04:52:00,69.0,67.0,-100.00,North,354,3.0,5.0,92,0.00,,,0.42,1.000000,,2013-08-27 11:52:00,
2013-08-27 05:02:00,69.0,67.0,-100.00,North,354,3.0,5.0,92,0.00,,,0.42,1.000000,,2013-08-27 12:02:00,
2013-08-27 05:42:00,68.0,67.0,-100.00,NNE,31,3.0,5.0,95,0.00,,,0.42,1.000000,,2013-08-27 12:42:00,
2013-08-27 05:52:00,68.0,67.0,-100.00,NNE,31,3.0,5.0,95,0.00,,,0.42,1.000000,,2013-08-27 12:52:00,
2013-08-27 06:01:00,68.0,67.0,-100.00,NNE,31,3.0,5.0,95,0.00,,,0.42,1.000000,,2013-08-27 13:01:00,
2013-08-27 06:42:00,67.0,64.0,-100.00,NE,36,1.0,5.0,91,0.00,,,0.42,2.000000,,2013-08-27 13:42:00,
2013-08-27 06:52:00,67.0,64.0,-100.00,NE,36,1.0,5.0,91,0.00,,,0.42,2.000000,,2013-08-27 13:52:00,
2013-08-27 07:02:00,67.0,64.0,-100.00,NE,36,1.0,5.0,91,0.00,,,0.42,2.000000,,2013-08-27 14:02:00,
2013-08-27 07:42:00,74.0,70.0,-100.00,NE,53,2.0,5.0,88,0.00,,,0.41,77.000000,,2013-08-27 14:42:00,
2013-08-27 07:53:00,74.0,70.0,-100.00,NE,53,2.0,5.0,88,0.00,,,0.41,77.000000,,2013-08-27 14:53:00,
2013-08-27 08:01:00,74.0,70.0,-100.00,NE,53,2.0,5.0,88,0.00,,,0.41,77.000000,,2013-08-27 15:01:00,
2013-08-27 08:08:00,81.0,71.0,-100.00,WSW,245,3.0,5.0,71,0.00,,,0.41,279.000000,,2013-08-27 15:08:00,
2013-08-27 08:45:00,81.0,71.0,-100.00,WSW,245,3.0,5.0,71,0.00,,,0.41,279.000000,,2013-08-27 15:45:00,
2013-08-27 08:58:00,81.0,71.0,-100.00,WSW,245,3.0,5.0,71,0.00,,,0.41,279.000000,,2013-08-27 15:58:00,
2013-08-27 09:46:00,87.0,70.0,-100.00,West,268,3.0,5.0,58,-99.99,,,0.41,485.000000,,2013-08-27 16:46:00,
2013-08-27 09:55:00,87.0,70.0,-100.00,West,268,3.0,5.0,58,-99.99,,,0.41,485.000000,,2013-08-27 16:55:00,
2013-08-27 10:04:00,87.0,70.0,-100.00,West,268,3.0,5.0,58,-99.99,,,0.41,485.000000,,2013-08-27 17:04:00,
2013-08-27 11:42:00,98.0,55.0,-100.00,ESE,115,10.0,18.0,24,0.01,,,-99.99,811.000000,,2013-08-27 18:42:00,
2013-08-27 11:52:00,98.0,55.0,-100.00,ESE,115,10.0,18.0,24,0.01,,,-99.99,811.000000,,2013-08-27 18:52:00,
2013-08-27 12:01:00,98.0,55.0,-100.00,ESE,115,10.0,18.0,24,0.01,,,-99.99,811.000000,,2013-08-27 19:01:00,
2013-08-27 12:42:00,99.0,56.0,-100.00,ENE,75,10.0,16.0,24,0.00,,,0.42,930.000000,,2013-08-27 19:42:00,
2013-08-27 12:52:00,99.0,56.0,-100.00,ENE,75,10.0,16.0,24,0.00,,,0.42,930.000000,,2013-08-27 19:52:00,
2013-08-27 13:02:00,99.0,56.0,-100.00,ENE,75,10.0,16.0,24,0.00,,,0.42,930.000000,,2013-08-27 20:02:00,